Schrunz, Liechtenstein
Current Conditions -  °F | °C
As of 6:50 PM on Saturday 22 Nov 2014 (Local Time) from LSZR Reporting Station
Moderate Fog Moderate Fog  
Wind Chill: 43°   Ceiling: 100
Heat Index: 43°   Visibility: 0.09mi
Dew Point: 43°   Wind: 2mph
Humidity: 100%   Direction: NA
Pressure: 30.15"   Gusts: NA
Location:  47.08°N, 9.93°E
Report Text: LSZR 221650Z VRB02KT 0150 R10/0600N FG VV001 06/06 Q1021 NOSIG RMK L
Loading
Personal Weather Stations






























Interactive Weather Map New forecast layout! Learn more

10-Day Weather Forecast

Advertisements
Track Severe Weather on mobile